Hlavní strana
METAR-TAF:

METAR-TAF

Letiště :

Panama Pacifico, Panama

zeměpisná šířka: 08-55N, zeměpisná délka: 079-36W, výška: 16 m

Aktuální stav počasí

Zpráva byla vytvořena před 56 minutami, v 10:00 UTC
Severoseverozápadní vítr 10 kt
Teplota 25°C
Vlhkost vzduchu 83%
Tlak 1011 hPa
Viditelnost 10 km a více
Skoro jasno ve výšce 2000 ft

METAR: MPPA 221000Z 34010KT 9999 FEW020 25/22 Q1011

Čas: 05:56 (10:56 UTC)

Předpověď počasí

Zpráva byla vytvořena před 6 hodinami a 56 minutami, v 04:00 UTC
Předpověď platná od 22 v 06 UTC do 23 v 12 UTC
Severní vítr 10 kt
Viditelnost 10 km a více
Polojasno ve výšce 2000 ft
Dočasný
od 22 v 17 UTC do 22 v 21 UTC
Severní vítr 15 kt
Polojasno ve výšce 1800 ft
Polojasno ve výšce 10000 ft

TAF: MPPA 220400Z 2206/2312 35010KT 9999 SCT020 TEMPO 2217/2221 36015KT SCT018 SCT100

Stav a předpovědi počasí z více než 4 000 letišť (zprávy METAR a TAF).

Červené a žluté tečky na mapě představují dostupné meteorologické stanice.

Když kurzor umístíte na tečku, zobrazí se název stanice.

Pak kliknutím zobrazíte stav a předpověď počasí.

Chcete-li změnit mapu, kliknutím na zelené tlačítko se znaménkem +mapu přiblížíte, kliknutím na zelené tlačítko se znaménkem – mapu oddálíte a kliknutím na zelené šipky přejdete na sousední mapy.


METAR-TAF: